createdAt,value
2019-04-26T00:01:21.688Z,9.47
2019-04-26T00:03:50.927Z,6.47
2019-04-26T00:06:20.546Z,10.20
2019-04-26T00:08:57.649Z,7.37
2019-04-26T00:11:39.854Z,7.33
2019-04-26T00:14:28.174Z,8.17
2019-04-26T00:17:18.137Z,9.70
2019-04-26T00:19:50.039Z,9.03
2019-04-26T00:22:19.465Z,10.07
2019-04-26T00:24:48.739Z,11.40
2019-04-26T00:27:18.928Z,9.40
2019-04-26T00:29:48.784Z,11.40
2019-04-26T00:32:19.212Z,14.60
2019-04-26T00:34:49.715Z,11.40
2019-04-26T00:37:20.095Z,12.57
2019-04-26T00:39:49.589Z,10.40
2019-04-26T00:42:20.591Z,11.10
2019-04-26T00:44:50.321Z,11.93
2019-04-26T00:47:21.416Z,11.67
2019-04-26T00:49:52.724Z,11.23
2019-04-26T00:52:23.606Z,14.00
2019-04-26T00:54:52.999Z,14.13
2019-04-26T00:57:22.752Z,12.77
2019-04-26T00:59:52.994Z,15.07
2019-04-26T01:02:42.793Z,12.43
2019-04-26T01:05:12.330Z,14.20
2019-04-26T01:07:43.247Z,14.47
2019-04-26T01:10:12.634Z,20.40
2019-04-26T01:12:42.245Z,17.10
2019-04-26T01:15:15.786Z,16.17
2019-04-26T01:17:44.417Z,15.80
2019-04-26T01:20:14.617Z,15.10
2019-04-26T01:22:48.557Z,17.80
2019-04-26T01:25:39.408Z,19.90
2019-04-26T01:28:11.629Z,21.10
2019-04-26T01:30:40.969Z,19.00
2019-04-26T01:33:12.392Z,21.50
2019-04-26T01:35:41.758Z,20.37
2019-04-26T01:38:14.337Z,22.13
2019-04-26T01:40:45.622Z,22.48
2019-04-26T01:43:22.715Z,23.63
2019-04-26T01:45:57.948Z,22.90
2019-04-26T01:48:45.257Z,19.37
2019-04-26T01:51:21.646Z,25.17
2019-04-26T01:53:53.147Z,23.00
2019-04-26T01:56:27.108Z,23.23
2019-04-26T01:58:56.595Z,22.20
2019-04-26T02:01:33.273Z,23.70
2019-04-26T02:04:03.625Z,24.63
2019-04-26T02:06:35.176Z,22.43
2019-04-26T02:09:05.408Z,26.10
2019-04-26T02:11:34.766Z,25.85
2019-04-26T02:14:04.381Z,25.23
2019-04-26T02:16:33.666Z,30.80
2019-04-26T02:19:03.313Z,30.33
2019-04-26T02:21:38.522Z,24.90
2019-04-26T02:24:16.511Z,33.23
2019-04-26T02:26:47.094Z,27.87
2019-04-26T02:29:18.922Z,26.40
2019-04-26T02:31:51.537Z,27.23
2019-04-26T02:34:21.653Z,28.20
2019-04-26T02:36:57.617Z,27.53
2019-04-26T02:39:27.476Z,30.70
2019-04-26T02:41:59.846Z,30.97
2019-04-26T02:44:39.697Z,30.23
2019-04-26T02:47:39.082Z,31.13
2019-04-26T02:50:14.602Z,34.40
2019-04-26T02:53:11.336Z,30.77
2019-04-26T02:56:21.099Z,31.75
2019-04-26T02:59:11.148Z,31.73
2019-04-26T03:01:40.641Z,36.53
2019-04-26T03:04:09.889Z,35.20
2019-04-26T03:06:42.661Z,38.30
2019-04-26T03:09:13.747Z,32.93
2019-04-26T03:11:46.084Z,35.00
2019-04-26T03:14:35.151Z,34.30
2019-04-26T03:17:13.367Z,37.30
2019-04-26T03:19:52.001Z,36.77
2019-04-26T03:22:54.134Z,39.07
2019-04-26T03:25:32.830Z,44.17
2019-04-26T03:28:25.302Z,39.50
2019-04-26T03:31:20.641Z,36.50
2019-04-26T03:34:13.617Z,35.73
2019-04-26T03:37:24.133Z,36.60
2019-04-26T03:40:07.157Z,41.10
2019-04-26T03:42:56.662Z,38.10
2019-04-26T03:45:40.924Z,43.40
2019-04-26T03:48:24.062Z,38.73
2019-04-26T03:51:04.175Z,42.40
2019-04-26T03:53:55.186Z,38.07
2019-04-26T03:57:13.063Z,37.87
2019-04-26T04:00:22.475Z,37.10
2019-04-26T04:03:26.990Z,41.10
2019-04-26T04:05:58.285Z,38.93
2019-04-26T04:08:37.592Z,39.57
2019-04-26T04:11:09.118Z,42.10
2019-04-26T04:14:05.713Z,40.00
2019-04-26T04:17:22.610Z,38.93
2019-04-26T04:20:26.637Z,43.23
2019-04-26T04:23:05.914Z,45.53
2019-04-26T04:25:40.024Z,45.40
2019-04-26T04:28:34.042Z,48.63
2019-04-26T04:31:16.594Z,50.43
2019-04-26T04:33:54.887Z,49.17
2019-04-26T04:36:45.907Z,50.53
2019-04-26T04:39:17.796Z,43.17
2019-04-26T04:42:12.324Z,44.67
2019-04-26T04:45:26.911Z,44.30
2019-04-26T04:48:20.772Z,43.17
2019-04-26T04:51:07.304Z,43.33
2019-04-26T04:54:05.319Z,42.40
2019-04-26T04:57:18.376Z,49.03
2019-04-26T04:59:59.732Z,45.73
2019-04-26T05:02:45.181Z,39.90
2019-04-26T05:06:07.236Z,43.50
2019-04-26T05:08:42.885Z,45.40
2019-04-26T05:11:20.184Z,48.17
2019-04-26T05:13:57.945Z,43.97
2019-04-26T05:16:45.438Z,47.17
2019-04-26T05:20:06.849Z,42.73
2019-04-26T05:23:15.852Z,43.83
2019-04-26T05:26:31.168Z,44.43
2019-04-26T05:29:30.085Z,46.07
2019-04-26T05:32:19.049Z,43.13
2019-04-26T05:34:56.936Z,46.57
2019-04-26T05:37:41.269Z,40.07
2019-04-26T05:40:48.722Z,42.63
2019-04-26T05:43:58.001Z,40.00
2019-04-26T05:47:21.310Z,38.73
2019-04-26T05:50:58.533Z,41.93
2019-04-26T05:54:40.204Z,36.50
2019-04-26T05:57:43.356Z,38.87
2019-04-26T06:00:30.173Z,44.53
2019-04-26T06:03:49.670Z,51.30
2019-04-26T06:06:35.682Z,49.33
2019-04-26T06:09:35.166Z,41.50
2019-04-26T06:12:19.874Z,43.53
2019-04-26T06:15:08.520Z,45.87
2019-04-26T06:18:25.481Z,42.10
2019-04-26T06:21:12.227Z,42.50
2019-04-26T06:23:52.385Z,42.67
2019-04-26T06:26:46.596Z,37.00
2019-04-26T06:29:23.577Z,32.60
2019-04-26T06:32:12.019Z,34.40
2019-04-26T06:35:13.184Z,38.20
2019-04-26T06:37:57.350Z,33.43
2019-04-26T06:40:42.038Z,36.60
2019-04-26T06:43:29.493Z,34.40
2019-04-26T06:46:52.622Z,37.37
2019-04-26T06:49:57.631Z,33.80
2019-04-26T06:52:28.502Z,34.30
2019-04-26T06:55:12.265Z,35.10
2019-04-26T06:58:14.411Z,32.60
2019-04-26T07:01:10.021Z,28.23
2019-04-26T07:04:05.574Z,31.30
2019-04-26T07:06:42.360Z,29.50
2019-04-26T07:09:13.073Z,26.00
2019-04-26T07:12:31.478Z,27.10
2019-04-26T07:15:47.841Z,28.20
2019-04-26T07:18:49.988Z,25.87
2019-04-26T07:21:39.194Z,30.87
2019-04-26T07:25:03.545Z,31.70
2019-04-26T07:28:03.219Z,28.67
2019-04-26T07:30:56.392Z,33.47
2019-04-26T07:34:05.192Z,30.70
2019-04-26T07:37:23.515Z,35.33
2019-04-26T07:40:43.460Z,26.63
2019-04-26T07:43:35.395Z,28.57
2019-04-26T07:46:38.020Z,30.63
2019-04-26T07:49:44.379Z,28.03
2019-04-26T07:52:36.460Z,29.40
2019-04-26T07:55:48.898Z,28.87
2019-04-26T07:59:08.764Z,30.77
2019-04-26T08:02:11.385Z,26.10
2019-04-26T08:04:46.232Z,26.70
2019-04-26T08:07:23.874Z,24.30
2019-04-26T08:10:07.767Z,25.00
2019-04-26T08:12:38.955Z,26.03
2019-04-26T08:15:37.497Z,28.47
2019-04-26T08:18:16.398Z,26.60
2019-04-26T08:20:50.213Z,28.40
2019-04-26T08:23:59.754Z,27.23
2019-04-26T08:26:30.697Z,29.27
2019-04-26T08:29:01.687Z,27.00
2019-04-26T08:31:34.416Z,29.80
2019-04-26T08:34:08.519Z,28.70
2019-04-26T08:36:45.100Z,25.83
2019-04-26T08:39:32.494Z,27.00
2019-04-26T08:42:00.052Z,29.30
2019-04-26T08:44:55.078Z,30.10
2019-04-26T08:47:51.055Z,24.93
2019-04-26T08:50:27.176Z,25.30
2019-04-26T08:52:58.019Z,31.33
2019-04-26T08:55:28.664Z,36.30
2019-04-26T08:58:02.256Z,25.77
2019-04-26T09:00:45.240Z,27.87
2019-04-26T09:03:41.604Z,31.20
2019-04-26T09:06:30.605Z,26.93
2019-04-26T09:09:02.051Z,29.90
2019-04-26T09:11:34.031Z,25.60
2019-04-26T09:14:04.262Z,31.27
2019-04-26T09:16:33.530Z,31.30
2019-04-26T09:19:04.628Z,31.20
2019-04-26T09:21:42.126Z,27.40
2019-04-26T09:24:36.170Z,28.23
2019-04-26T09:27:30.840Z,28.10
2019-04-26T09:30:11.807Z,26.50
2019-04-26T09:32:45.989Z,31.10
2019-04-26T09:35:16.398Z,24.80
2019-04-26T09:37:46.063Z,28.13
2019-04-26T09:40:21.693Z,25.03
2019-04-26T09:42:53.668Z,27.50
2019-04-26T09:45:48.253Z,23.70
2019-04-26T09:48:22.675Z,22.40
2019-04-26T09:50:52.965Z,22.57
2019-04-26T09:53:22.395Z,21.97
2019-04-26T09:55:51.655Z,24.40
2019-04-26T09:58:21.250Z,18.90
2019-04-26T10:00:52.283Z,21.63
2019-04-26T10:03:23.627Z,23.73
2019-04-26T10:05:55.838Z,19.10
2019-04-26T10:08:24.485Z,21.60
2019-04-26T10:10:55.534Z,16.63
2019-04-26T10:13:42.660Z,18.37
2019-04-26T10:16:37.697Z,20.23
2019-04-26T10:19:12.858Z,20.10
2019-04-26T10:21:42.152Z,17.77
2019-04-26T10:24:11.435Z,18.57
2019-04-26T10:26:41.044Z,18.67
2019-04-26T10:29:10.286Z,18.63
2019-04-26T10:31:39.559Z,22.20
2019-04-26T10:34:11.835Z,17.93
2019-04-26T10:36:41.732Z,18.23
2019-04-26T10:39:12.767Z,18.83
2019-04-26T10:41:42.117Z,16.67
2019-04-26T10:44:12.763Z,15.20
2019-04-26T10:46:54.860Z,17.70
2019-04-26T10:49:40.267Z,18.83
2019-04-26T10:52:17.623Z,16.57
2019-04-26T10:54:50.318Z,13.47
2019-04-26T10:57:27.106Z,14.80
2019-04-26T11:00:02.313Z,15.00
2019-04-26T11:02:34.397Z,17.20
2019-04-26T11:05:04.214Z,14.23
2019-04-26T11:07:33.820Z,12.20
2019-04-26T11:10:04.752Z,14.53
2019-04-26T11:12:34.456Z,16.43
2019-04-26T11:15:06.255Z,16.13
2019-04-26T11:17:35.787Z,14.30
2019-04-26T11:20:06.353Z,17.73
2019-04-26T11:22:37.603Z,14.07
2019-04-26T11:25:07.734Z,13.17
2019-04-26T11:27:40.109Z,17.87
2019-04-26T11:30:12.311Z,16.73
2019-04-26T11:32:39.970Z,16.67
2019-04-26T11:35:09.210Z,18.47
2019-04-26T11:37:39.919Z,16.13
2019-04-26T11:40:10.305Z,20.80
2019-04-26T11:42:41.842Z,16.27
2019-04-26T11:45:14.809Z,16.73
2019-04-26T11:47:55.525Z,16.40
2019-04-26T11:50:17.855Z,17.47
2019-04-26T11:52:47.333Z,19.40
2019-04-26T11:55:16.856Z,15.63
2019-04-26T11:57:47.568Z,16.33
2019-04-26T12:00:27.645Z,14.53
2019-04-26T12:03:03.012Z,14.13
2019-04-26T12:05:42.577Z,15.77
2019-04-26T12:08:16.271Z,16.43
2019-04-26T12:10:45.975Z,14.70
2019-04-26T12:13:15.367Z,17.00
2019-04-26T12:15:45.846Z,17.93
2019-04-26T12:18:15.572Z,13.37
2019-04-26T12:20:45.115Z,14.30
2019-04-26T12:23:20.341Z,16.60
2019-04-26T12:25:48.071Z,18.20
2019-04-26T12:28:18.478Z,13.40
2019-04-26T12:30:49.242Z,16.63
2019-04-26T12:33:18.893Z,17.43
2019-04-26T12:35:48.182Z,14.00
2019-04-26T12:38:17.466Z,16.03
2019-04-26T12:40:47.592Z,12.50
2019-04-26T12:43:20.062Z,16.53
2019-04-26T12:46:05.787Z,18.43
2019-04-26T12:48:35.120Z,14.20
2019-04-26T12:51:04.323Z,14.03
2019-04-26T12:53:33.924Z,14.47
2019-04-26T12:56:03.162Z,15.00
2019-04-26T12:58:34.465Z,13.30
2019-04-26T13:01:07.883Z,18.67
2019-04-26T13:03:38.225Z,20.57
2019-04-26T13:06:08.931Z,15.40
2019-04-26T13:08:39.027Z,13.40
2019-04-26T13:11:27.666Z,13.50
2019-04-26T13:14:06.414Z,15.30
2019-04-26T13:16:40.201Z,13.83
2019-04-26T13:19:09.475Z,14.60
2019-04-26T13:21:38.957Z,13.97
2019-04-26T13:24:08.632Z,16.03
2019-04-26T13:26:38.432Z,12.43
2019-04-26T13:29:08.310Z,17.07
2019-04-26T13:31:37.554Z,15.17
2019-04-26T13:34:08.768Z,17.27
2019-04-26T13:36:38.408Z,15.07
2019-04-26T13:39:13.455Z,17.30
2019-04-26T13:41:44.848Z,15.93
2019-04-26T13:44:14.352Z,14.67
2019-04-26T13:47:09.315Z,19.67
2019-04-26T13:49:52.418Z,14.03
2019-04-26T13:52:21.624Z,16.23
2019-04-26T13:54:55.311Z,14.83
2019-04-26T13:57:22.314Z,13.27
2019-04-26T13:59:52.671Z,14.23
2019-04-26T14:02:22.561Z,15.13
2019-04-26T14:04:52.011Z,15.57
2019-04-26T14:07:24.422Z,12.00
2019-04-26T14:09:53.278Z,11.90
2019-04-26T14:12:22.695Z,14.03
2019-04-26T14:14:51.948Z,15.10
2019-04-26T14:17:26.033Z,14.43
2019-04-26T14:19:55.289Z,16.23
2019-04-26T14:22:28.798Z,13.70
2019-04-26T14:25:11.267Z,11.33
2019-04-26T14:27:49.798Z,14.40
2019-04-26T14:30:20.776Z,14.23
2019-04-26T14:32:53.182Z,14.10
2019-04-26T14:35:21.425Z,11.13
2019-04-26T14:37:51.599Z,13.57
2019-04-26T14:40:21.007Z,12.47
2019-04-26T14:42:50.667Z,15.97
2019-04-26T14:45:23.596Z,17.47
2019-04-26T14:47:53.066Z,14.00
2019-04-26T14:50:22.686Z,16.57
2019-04-26T14:52:52.557Z,17.10
2019-04-26T14:55:22.858Z,15.03
2019-04-26T14:57:54.028Z,13.00
2019-04-26T15:00:29.034Z,11.80
2019-04-26T15:03:07.029Z,15.73
2019-04-26T15:05:54.157Z,14.83
2019-04-26T15:08:23.421Z,13.80
2019-04-26T15:11:00.962Z,12.47
2019-04-26T15:13:26.313Z,12.50
2019-04-26T15:15:56.253Z,11.53
2019-04-26T15:18:25.534Z,13.37
2019-04-26T15:20:57.105Z,12.40
2019-04-26T15:23:26.635Z,12.03
2019-04-26T15:25:59.526Z,12.23
2019-04-26T15:28:28.847Z,14.10
2019-04-26T15:30:58.515Z,10.57
2019-04-26T15:33:32.488Z,13.43
2019-04-26T15:36:06.035Z,12.90
2019-04-26T15:38:41.061Z,13.03
2019-04-26T15:41:33.177Z,12.07
2019-04-26T15:44:15.630Z,11.90
2019-04-26T15:47:06.042Z,12.50
2019-04-26T15:49:48.981Z,14.13
2019-04-26T15:52:18.935Z,14.70
2019-04-26T15:54:48.541Z,13.30
2019-04-26T15:57:18.166Z,12.27
2019-04-26T15:59:47.460Z,12.40
2019-04-26T16:02:18.313Z,14.87
2019-04-26T16:04:51.339Z,13.07
2019-04-26T16:07:27.246Z,11.60
2019-04-26T16:09:55.893Z,13.70
2019-04-26T16:12:25.834Z,12.50
2019-04-26T16:14:54.134Z,11.57
2019-04-26T16:17:23.388Z,15.40
2019-04-26T16:19:56.213Z,15.57
2019-04-26T16:22:25.800Z,10.30
2019-04-26T16:24:58.288Z,13.73
2019-04-26T16:27:30.943Z,11.40
2019-04-26T16:30:19.746Z,13.60
2019-04-26T16:32:58.870Z,12.80
2019-04-26T16:35:28.307Z,13.27
2019-04-26T16:38:00.072Z,13.00
2019-04-26T16:40:29.879Z,16.63
2019-04-26T16:42:59.828Z,13.77
2019-04-26T16:45:29.185Z,16.87
2019-04-26T16:47:58.484Z,13.87
2019-04-26T16:50:31.560Z,19.63
2019-04-26T16:52:59.628Z,13.47
2019-04-26T16:55:37.886Z,15.90
2019-04-26T16:58:04.454Z,16.20
2019-04-26T17:00:50.072Z,13.57
2019-04-26T17:03:08.058Z,14.60
2019-04-26T17:05:47.171Z,13.73
2019-04-26T17:08:10.483Z,17.30
2019-04-26T17:10:39.884Z,12.73
2019-04-26T17:13:10.362Z,13.23
2019-04-26T17:15:39.935Z,12.00
2019-04-26T17:18:10.341Z,11.33
2019-04-26T17:20:40.535Z,12.43
2019-04-26T17:23:45.493Z,15.87
2019-04-26T17:26:33.607Z,14.50
2019-04-26T17:29:02.405Z,11.27
2019-04-26T17:31:33.741Z,14.90
2019-04-26T17:34:05.207Z,12.53
2019-04-26T17:36:34.757Z,12.20
2019-04-26T17:39:05.489Z,14.40
2019-04-26T17:41:35.031Z,13.37
2019-04-26T17:44:10.747Z,11.37
2019-04-26T17:46:37.080Z,14.23
2019-04-26T17:49:07.217Z,13.23
2019-04-26T17:51:43.643Z,12.30
2019-04-26T17:54:26.547Z,11.67
2019-04-26T17:56:42.235Z,14.87
2019-04-26T17:59:30.230Z,11.47
2019-04-26T18:01:48.009Z,11.73
2019-04-26T18:04:15.138Z,13.90
2019-04-26T18:06:54.179Z,11.10
2019-04-26T18:09:38.112Z,14.83
2019-04-26T18:11:46.633Z,16.00
2019-04-26T18:14:21.612Z,15.80
2019-04-26T18:16:57.246Z,14.73
2019-04-26T18:19:47.320Z,21.23
2019-04-26T18:22:28.465Z,12.53
2019-04-26T18:24:58.110Z,22.90
2019-04-26T18:27:29.864Z,13.87
2019-04-26T18:30:06.685Z,16.40
2019-04-26T18:32:33.920Z,15.67
2019-04-26T18:35:03.726Z,14.17
2019-04-26T18:37:36.488Z,12.83
2019-04-26T18:40:06.410Z,19.40
2019-04-26T18:42:37.527Z,14.83
2019-04-26T18:45:07.586Z,18.43
2019-04-26T18:47:41.608Z,13.57
2019-04-26T18:50:11.161Z,16.43
2019-04-26T18:52:49.862Z,20.00
2019-04-26T18:55:29.051Z,18.10
2019-04-26T18:58:01.475Z,21.67
2019-04-26T19:00:36.117Z,24.33
2019-04-26T19:03:06.330Z,20.30
2019-04-26T19:05:37.204Z,18.10
2019-04-26T19:08:07.675Z,18.17
2019-04-26T19:10:38.563Z,16.77
2019-04-26T19:13:30.873Z,15.17
2019-04-26T19:16:21.757Z,21.40
2019-04-26T19:18:58.735Z,20.70
2019-04-26T19:21:39.309Z,21.30
2019-04-26T19:24:17.685Z,19.50
2019-04-26T19:26:44.187Z,23.63
2019-04-26T19:29:18.485Z,18.63
2019-04-26T19:31:47.638Z,28.47
2019-04-26T19:34:17.885Z,16.33
2019-04-26T19:36:48.171Z,18.30
2019-04-26T19:39:22.778Z,21.80
2019-04-26T19:41:52.008Z,17.00
2019-04-26T19:44:24.058Z,17.30
2019-04-26T19:47:17.905Z,19.23
2019-04-26T19:50:09.756Z,21.93
2019-04-26T19:52:51.813Z,25.73
2019-04-26T19:55:41.895Z,21.00
2019-04-26T19:58:16.238Z,22.50
2019-04-26T20:00:46.848Z,22.13
2019-04-26T20:03:17.113Z,17.37
2019-04-26T20:05:46.723Z,21.63
2019-04-26T20:08:16.502Z,22.53
2019-04-26T20:10:46.088Z,17.60
2019-04-26T20:13:16.588Z,25.60
2019-04-26T20:15:46.515Z,20.63
2019-04-26T20:18:17.822Z,20.50
2019-04-26T20:20:47.322Z,27.27
2019-04-26T20:23:19.398Z,31.30
2019-04-26T20:25:49.022Z,27.50
2019-04-26T20:28:19.031Z,28.10
2019-04-26T20:31:13.837Z,25.27
2019-04-26T20:33:47.661Z,27.40
2019-04-26T20:36:17.348Z,23.57
2019-04-26T20:38:47.615Z,26.30
2019-04-26T20:41:17.404Z,31.70
2019-04-26T20:43:56.590Z,23.47
2019-04-26T20:46:17.757Z,26.90
2019-04-26T20:48:47.466Z,30.63
2019-04-26T20:51:18.392Z,25.48
2019-04-26T20:53:48.211Z,28.77
2019-04-26T20:56:18.782Z,36.13
2019-04-26T20:58:48.181Z,31.97
2019-04-26T21:01:18.155Z,28.27
2019-04-26T21:03:47.470Z,34.10
2019-04-26T21:06:17.061Z,30.33
2019-04-26T21:08:46.552Z,30.87
2019-04-26T21:11:15.826Z,30.37
2019-04-26T21:13:46.546Z,32.40
2019-04-26T21:16:16.318Z,27.83
2019-04-26T21:18:45.885Z,32.80
2019-04-26T21:21:16.155Z,29.60
2019-04-26T21:23:47.682Z,35.77
2019-04-26T21:26:36.194Z,27.33
2019-04-26T21:29:27.721Z,31.53
2019-04-26T21:32:32.579Z,35.90
2019-04-26T21:35:01.347Z,31.27
2019-04-26T21:37:43.774Z,30.97
2019-04-26T21:40:23.247Z,29.93
2019-04-26T21:42:59.302Z,34.07
2019-04-26T21:45:30.951Z,28.03
2019-04-26T21:48:02.567Z,30.17
2019-04-26T21:50:36.065Z,35.40
2019-04-26T21:53:03.382Z,31.33
2019-04-26T21:55:38.345Z,31.27
2019-04-26T21:58:05.129Z,33.10
2019-04-26T22:00:53.720Z,33.30
2019-04-26T22:03:25.177Z,34.23
2019-04-26T22:05:55.906Z,39.20
2019-04-26T22:08:29.068Z,30.13
2019-04-26T22:10:58.958Z,40.00
2019-04-26T22:13:44.798Z,40.07
2019-04-26T22:16:31.970Z,36.00
2019-04-26T22:19:08.810Z,37.23
2019-04-26T22:21:48.072Z,41.40
2019-04-26T22:24:23.878Z,34.13
2019-04-26T22:26:53.294Z,46.67
2019-04-26T22:29:23.073Z,39.00
2019-04-26T22:31:54.620Z,38.13
2019-04-26T22:34:24.055Z,40.37
2019-04-26T22:36:53.747Z,46.03
2019-04-26T22:39:24.553Z,43.77
2019-04-26T22:41:58.424Z,49.20
2019-04-26T22:44:36.813Z,40.93
2019-04-26T22:47:14.213Z,46.77
2019-04-26T22:49:45.302Z,44.37
2019-04-26T22:52:16.444Z,44.73
2019-04-26T22:54:46.780Z,43.10
2019-04-26T22:57:16.598Z,40.20
2019-04-26T22:59:50.195Z,44.70
2019-04-26T23:02:25.372Z,41.93
2019-04-26T23:04:50.092Z,43.73
2019-04-26T23:07:23.274Z,43.87
2019-04-26T23:09:55.133Z,47.47
2019-04-26T23:12:36.729Z,44.10
2019-04-26T23:15:30.061Z,43.77
2019-04-26T23:18:21.102Z,45.93
2019-04-26T23:20:57.660Z,46.43
2019-04-26T23:23:28.020Z,47.70
2019-04-26T23:25:57.409Z,42.37
2019-04-26T23:28:33.957Z,45.67
2019-04-26T23:31:01.436Z,51.80
2019-04-26T23:33:30.913Z,50.70
2019-04-26T23:36:00.958Z,49.57
2019-04-26T23:38:34.525Z,52.97
2019-04-26T23:41:07.024Z,52.07
2019-04-26T23:43:33.171Z,43.30
2019-04-26T23:46:02.440Z,43.20
2019-04-26T23:48:33.152Z,44.67
2019-04-26T23:51:05.048Z,42.07
2019-04-26T23:53:33.949Z,39.47
2019-04-26T23:56:06.557Z,46.83
2019-04-26T23:58:35.828Z,41.00
